Time;durP1;ratioP1;P1;durP2;ratioP2;P2;SDS_P1;SDS_P2;PMS_P1;PMS_P2;Temp;Humidity;BMP_temperature;BMP_pressure;BME280_temperature;BME280_humidity;BME280_pressure;Samples;Min_cycle;Max_cycle;Signal;HPM_P1;HPM_P2
2022/04/07 00:01:43;;;;;;;1.60;1.43;;;2.00;99.90;;;;;;6261704;28;20455;-80
2022/04/07 00:04:49;;;;;;;1.33;1.30;;;2.00;99.90;;;;;;6259967;28;20293;-80
2022/04/07 00:07:54;;;;;;;1.50;1.40;;;2.00;99.90;;;;;;6260725;28;20482;-80
2022/04/07 00:11:01;;;;;;;1.73;1.57;;;2.10;99.90;;;;;;6274774;28;20565;-80
2022/04/07 00:14:07;;;;;;;1.50;1.40;;;2.10;99.90;;;;;;6285504;28;20302;-80
2022/04/07 00:17:13;;;;;;;2.57;1.77;;;2.10;99.90;;;;;;6285214;28;20455;-80
2022/04/07 00:20:20;;;;;;;2.00;1.53;;;2.10;99.90;;;;;;6285674;28;20274;-80
2022/04/07 00:23:26;;;;;;;1.37;1.30;;;2.20;99.90;;;;;;6285002;28;20475;-80
2022/04/07 00:26:33;;;;;;;1.20;1.20;;;2.20;99.90;;;;;;6285778;28;20408;-79
2022/04/07 00:29:39;;;;;;;1.93;1.83;;;2.20;99.90;;;;;;6285246;28;20322;-80
2022/04/07 00:32:44;;;;;;;2.83;1.63;;;2.30;99.90;;;;;;6285527;28;20287;-80
2022/04/07 00:35:49;;;;;;;2.13;1.40;;;2.30;99.90;;;;;;6285536;28;20471;-80
2022/04/07 00:38:55;;;;;;;1.50;1.50;;;2.30;99.90;;;;;;6285385;28;20300;-80
2022/04/07 00:42:02;;;;;;;1.50;1.50;;;2.30;99.90;;;;;;6285245;28;20554;-80
2022/04/07 00:45:09;;;;;;;1.50;1.40;;;2.20;99.90;;;;;;6288008;28;20279;-80
2022/04/07 00:48:15;;;;;;;1.53;1.53;;;2.30;99.90;;;;;;6290322;28;20600;-80
2022/04/07 00:51:20;;;;;;;2.67;1.70;;;2.20;99.90;;;;;;6290328;28;20290;-80
2022/04/07 00:54:27;;;;;;;1.50;1.50;;;2.30;99.90;;;;;;6288757;28;20299;-80
2022/04/07 00:57:33;;;;;;;2.13;1.57;;;2.30;99.90;;;;;;6289549;28;20296;-80
2022/04/07 01:00:39;;;;;;;1.73;1.63;;;2.30;99.90;;;;;;6290648;28;20287;-80
2022/04/07 01:03:44;;;;;;;1.40;1.40;;;2.30;99.90;;;;;;6289464;28;20291;-80
2022/04/07 01:06:50;;;;;;;1.47;1.47;;;2.30;99.90;;;;;;6288659;28;20281;-80
2022/04/07 01:09:55;;;;;;;2.20;1.70;;;2.30;99.90;;;;;;6284838;28;20295;-80
2022/04/07 01:13:02;;;;;;;1.40;1.30;;;2.40;99.90;;;;;;6264627;28;20300;-80
2022/04/07 01:16:08;;;;;;;1.43;1.33;;;2.30;99.90;;;;;;6264168;28;20271;-80
2022/04/07 01:19:14;;;;;;;1.50;1.40;;;2.40;99.90;;;;;;6263465;28;20306;-80
2022/04/07 01:22:20;;;;;;;1.43;1.33;;;2.40;99.90;;;;;;6262724;28;21761;-80
2022/04/07 01:25:28;;;;;;;1.83;1.30;;;2.40;99.90;;;;;;6264928;28;20271;-80
2022/04/07 01:28:33;;;;;;;1.20;1.20;;;2.40;99.90;;;;;;6264737;28;20300;-80
2022/04/07 01:31:39;;;;;;;2.23;1.40;;;2.40;99.90;;;;;;6263685;28;20486;-80
2022/04/07 01:34:45;;;;;;;1.20;1.20;;;2.50;99.90;;;;;;6264453;28;20297;-80
2022/04/07 01:37:50;;;;;;;1.20;1.20;;;2.50;99.90;;;;;;6264033;28;20293;-80
2022/04/07 01:40:58;;;;;;;1.93;1.13;;;2.50;99.90;;;;;;6264943;28;20278;-80
2022/04/07 01:44:05;;;;;;;2.43;1.10;;;2.50;99.90;;;;;;6264118;28;20295;-80
2022/04/07 01:47:11;;;;;;;1.47;1.47;;;2.40;99.90;;;;;;6263908;28;20272;-80
2022/04/07 01:50:17;;;;;;;1.40;1.40;;;2.50;99.90;;;;;;6264307;28;20297;-80
2022/04/07 01:53:22;;;;;;;1.20;1.20;;;2.50;99.90;;;;;;6263990;28;20304;-80
2022/04/07 01:56:30;;;;;;;1.60;1.50;;;2.50;99.90;;;;;;6263764;28;20278;-80
2022/04/07 01:59:35;;;;;;;1.10;1.10;;;2.50;99.90;;;;;;6263983;28;20292;-81
2022/04/07 02:02:40;;;;;;;1.40;1.30;;;2.40;99.90;;;;;;6263665;28;20291;-80
2022/04/07 02:05:46;;;;;;;1.90;1.90;;;2.50;99.90;;;;;;6264056;28;20453;-80
2022/04/07 02:08:51;;;;;;;1.60;1.50;;;2.50;99.90;;;;;;6263697;28;20324;-79
2022/04/07 02:12:01;;;;;;;1.20;1.20;;;2.50;99.90;;;;;;6284974;28;20594;-79
2022/04/07 02:15:07;;;;;;;1.30;1.30;;;2.50;99.90;;;;;;6287572;28;20459;-79
2022/04/07 02:18:16;;;;;;;1.20;1.20;;;2.50;99.90;;;;;;6287711;28;20298;-79
2022/04/07 02:21:21;;;;;;;1.40;1.40;;;2.50;99.90;;;;;;6287328;28;20275;-80
2022/04/07 02:24:27;;;;;;;2.13;1.67;;;2.50;99.90;;;;;;6287690;28;20302;-80
2022/04/07 02:27:39;;;;;;;1.37;1.27;;;2.50;99.90;;;;;;6287780;28;20286;-79
2022/04/07 02:30:44;;;;;;;1.27;1.27;;;2.40;99.90;;;;;;6288644;28;20373;-80
2022/04/07 02:33:50;;;;;;;1.20;1.20;;;2.40;99.90;;;;;;6287777;28;20366;-79
2022/04/07 02:36:55;;;;;;;2.17;1.27;;;2.50;99.90;;;;;;6287860;28;20271;-80
2022/04/07 02:40:01;;;;;;;1.40;1.40;;;2.50;99.90;;;;;;6285884;28;20299;-79
2022/04/07 02:43:07;;;;;;;1.50;1.40;;;2.50;99.90;;;;;;6287403;28;20305;-80
2022/04/07 02:46:13;;;;;;;1.40;1.40;;;2.50;99.90;;;;;;6287404;28;20281;-79
2022/04/07 02:49:18;;;;;;;1.70;1.23;;;2.50;99.90;;;;;;6287392;28;20294;-80
2022/04/07 02:52:23;;;;;;;1.27;1.17;;;2.50;99.90;;;;;;6287289;28;20295;-80
2022/04/07 02:55:28;;;;;;;1.07;1.07;;;2.50;99.90;;;;;;6287234;28;20303;-79
2022/04/07 02:58:36;;;;;;;1.57;1.47;;;2.50;99.90;;;;;;6285903;28;20302;-80
2022/04/07 03:01:43;;;;;;;1.43;1.27;;;2.50;99.90;;;;;;6274664;28;20512;-80
2022/04/07 03:04:49;;;;;;;1.27;1.20;;;2.50;99.90;;;;;;6269922;28;20299;-80
2022/04/07 03:07:54;;;;;;;1.23;1.20;;;2.50;99.90;;;;;;6282017;28;20305;-79
2022/04/07 03:11:00;;;;;;;1.27;1.27;;;2.50;99.90;;;;;;6275713;28;20296;-79
2022/04/07 03:14:07;;;;;;;2.20;1.57;;;2.50;99.90;;;;;;6262332;28;20291;-79
2022/04/07 03:17:12;;;;;;;1.27;1.27;;;2.40;99.90;;;;;;6262106;28;20443;-80
2022/04/07 03:20:18;;;;;;;1.40;1.40;;;2.50;99.90;;;;;;6280326;28;20263;-79
2022/04/07 03:23:23;;;;;;;1.33;1.23;;;2.50;99.90;;;;;;6286410;28;20297;-80
2022/04/07 03:26:28;;;;;;;1.30;1.30;;;2.50;99.90;;;;;;6285815;28;20272;-80
2022/04/07 03:29:35;;;;;;;1.20;1.20;;;2.50;99.90;;;;;;6286822;28;20295;-80
2022/04/07 03:32:41;;;;;;;1.37;1.37;;;2.50;99.90;;;;;;6286416;28;20295;-79
2022/04/07 03:35:46;;;;;;;1.53;1.53;;;2.50;99.90;;;;;;6282163;28;20259;-80
2022/04/07 03:38:52;;;;;;;3.03;1.43;;;2.60;99.90;;;;;;6261738;28;20303;-80
2022/04/07 03:41:57;;;;;;;1.50;1.40;;;2.70;99.90;;;;;;6261181;28;20277;-80
2022/04/07 03:45:05;;;;;;;1.60;1.47;;;2.60;99.90;;;;;;6261889;28;20273;-80
2022/04/07 03:48:16;;;;;;;1.60;1.53;;;2.60;99.90;;;;;;6261170;28;20301;-80
2022/04/07 03:51:22;;;;;;;1.60;1.60;;;2.60;99.90;;;;;;6261504;28;20295;-80
2022/04/07 03:54:28;;;;;;;1.53;1.50;;;2.60;99.90;;;;;;6261457;28;20298;-80
2022/04/07 03:57:33;;;;;;;1.57;1.53;;;2.60;99.90;;;;;;6260851;28;20291;-80
2022/04/07 04:00:40;;;;;;;1.50;1.50;;;2.60;99.90;;;;;;6261659;28;20439;-80
2022/04/07 04:03:45;;;;;;;1.50;1.50;;;2.60;99.90;;;;;;6260998;28;20613;-80
2022/04/07 04:06:51;;;;;;;1.20;1.20;;;2.60;99.90;;;;;;6261234;28;20655;-80
2022/04/07 04:09:56;;;;;;;1.67;1.57;;;2.60;99.90;;;;;;6265492;28;20287;-80
2022/04/07 04:13:02;;;;;;;1.30;1.30;;;2.60;99.90;;;;;;6285494;28;20305;-80
2022/04/07 04:16:09;;;;;;;1.50;1.50;;;2.60;99.90;;;;;;6286225;28;20420;-80
2022/04/07 04:19:15;;;;;;;1.40;1.30;;;2.70;99.90;;;;;;6285598;28;20310;-80
2022/04/07 04:22:20;;;;;;;1.47;1.47;;;2.60;99.90;;;;;;6285061;28;20298;-80
2022/04/07 04:25:27;;;;;;;3.27;1.57;;;2.70;99.90;;;;;;6285994;28;20274;-80
2022/04/07 04:28:41;;;;;;;1.90;1.30;;;2.70;99.90;;;;;;6285277;28;20304;-80
2022/04/07 04:31:48;;;;;;;1.70;1.50;;;2.70;99.90;;;;;;6285694;28;20294;-80
2022/04/07 04:34:54;;;;;;;1.33;1.33;;;2.60;99.90;;;;;;6285155;28;20287;-80
2022/04/07 04:37:59;;;;;;;1.57;1.57;;;2.70;99.90;;;;;;6283573;28;20286;-80
2022/04/07 04:41:05;;;;;;;1.20;1.20;;;2.70;99.90;;;;;;6285731;28;20537;-80
2022/04/07 04:44:11;;;;;;;1.70;1.23;;;2.70;99.90;;;;;;6285229;28;20309;-80
2022/04/07 04:47:19;;;;;;;1.43;1.23;;;2.80;99.90;;;;;;6284860;28;20288;-80
2022/04/07 04:50:26;;;;;;;1.40;1.30;;;2.70;99.90;;;;;;6285550;28;20462;-80
2022/04/07 04:53:31;;;;;;;1.57;1.50;;;2.70;99.90;;;;;;6285244;28;20306;-80
2022/04/07 04:56:36;;;;;;;1.40;1.40;;;2.70;99.90;;;;;;6285231;28;20579;-80
2022/04/07 04:59:41;;;;;;;1.70;1.50;;;2.60;99.90;;;;;;6285008;28;20303;-80
2022/04/07 05:02:48;;;;;;;1.30;1.30;;;2.60;99.90;;;;;;6284963;28;20290;-80
2022/04/07 05:05:54;;;;;;;2.23;1.60;;;2.60;99.90;;;;;;6285173;28;20460;-80
2022/04/07 05:08:59;;;;;;;1.70;1.60;;;2.70;99.90;;;;;;6284852;28;20295;-80
2022/04/07 05:12:06;;;;;;;1.37;1.37;;;2.80;99.90;;;;;;6262156;28;20264;-80
2022/04/07 05:15:12;;;;;;;1.37;1.37;;;2.80;99.90;;;;;;6260430;28;20291;-80
2022/04/07 05:18:19;;;;;;;1.67;1.57;;;2.80;99.90;;;;;;6260298;28;20318;-80
2022/04/07 05:21:24;;;;;;;1.70;1.60;;;2.80;99.90;;;;;;6260389;28;20553;-80
2022/04/07 05:24:29;;;;;;;2.23;1.60;;;2.80;99.90;;;;;;6260173;28;20309;-80
2022/04/07 05:27:36;;;;;;;1.60;1.60;;;2.80;99.90;;;;;;6260088;28;20292;-80
2022/04/07 05:30:42;;;;;;;1.37;1.37;;;2.80;99.90;;;;;;6261787;28;20273;-79
2022/04/07 05:33:48;;;;;;;2.10;2.00;;;2.80;99.90;;;;;;6264349;28;20292;-79
2022/04/07 05:36:54;;;;;;;1.70;1.60;;;2.80;99.90;;;;;;6264467;28;20274;-79
2022/04/07 05:39:59;;;;;;;1.67;1.50;;;2.90;99.90;;;;;;6264327;28;20485;-79
2022/04/07 05:43:09;;;;;;;1.70;1.60;;;2.90;99.90;;;;;;6264258;28;20302;-78
2022/04/07 05:46:15;;;;;;;1.67;1.67;;;2.90;99.90;;;;;;6264419;28;20272;-79
2022/04/07 05:49:21;;;;;;;3.03;1.47;;;2.80;99.90;;;;;;6264370;28;20295;-80
2022/04/07 05:52:27;;;;;;;1.63;1.63;;;2.90;99.90;;;;;;6263694;28;20343;-79
2022/04/07 05:55:32;;;;;;;1.67;1.60;;;2.90;99.90;;;;;;6263385;28;20277;-80
2022/04/07 05:58:38;;;;;;;1.90;1.80;;;2.90;99.90;;;;;;6263911;28;20296;-81
2022/04/07 06:01:43;;;;;;;2.10;2.00;;;3.00;99.90;;;;;;6263941;28;20435;-81
2022/04/07 06:04:50;;;;;;;1.87;1.77;;;3.00;99.90;;;;;;6263649;28;20308;-81
2022/04/07 06:07:59;;;;;;;1.50;1.50;;;2.90;99.90;;;;;;6262003;28;20607;-82
2022/04/07 06:11:05;;;;;;;1.70;1.70;;;3.00;99.90;;;;;;6276655;28;20263;-85
2022/04/07 06:14:12;;;;;;;1.50;1.50;;;3.00;99.90;;;;;;6286895;28;20302;-84
2022/04/07 06:17:17;;;;;;;1.57;1.50;;;3.00;99.90;;;;;;6287865;28;20295;-85
2022/04/07 06:20:25;;;;;;;1.80;1.70;;;3.10;99.90;;;;;;6286806;28;20313;-82
2022/04/07 06:23:32;;;;;;;1.77;1.67;;;3.00;99.90;;;;;;6286420;28;20313;-81
2022/04/07 06:26:38;;;;;;;4.83;4.43;;;3.00;99.90;;;;;;6288244;28;20273;-78
2022/04/07 06:29:43;;;;;;;1.90;1.90;;;3.00;99.90;;;;;;6286566;28;20297;-80
2022/04/07 06:32:49;;;;;;;1.90;1.90;;;3.00;99.90;;;;;;6287752;28;20302;-77
2022/04/07 06:35:56;;;;;;;1.63;1.60;;;2.90;99.90;;;;;;6286519;28;20297;-83
2022/04/07 06:39:01;;;;;;;1.63;1.60;;;3.00;99.90;;;;;;6287322;28;20294;-83
2022/04/07 06:42:08;;;;;;;1.67;1.67;;;2.90;99.90;;;;;;6285958;28;20282;-84
2022/04/07 06:45:13;;;;;;;1.40;1.40;;;3.00;99.90;;;;;;6287472;28;20275;-83
2022/04/07 06:48:21;;;;;;;1.50;1.50;;;3.00;99.90;;;;;;6287326;28;20307;-83
2022/04/07 06:51:29;;;;;;;1.70;1.60;;;3.00;99.90;;;;;;6286005;28;20267;-83
2022/04/07 06:54:35;;;;;;;1.67;1.67;;;3.00;99.90;;;;;;6287650;28;20299;-83
2022/04/07 06:57:51;;;;;;;1.63;1.53;;;3.00;99.90;;;;;;6287318;28;20296;-83
2022/04/07 07:00:56;;;;;;;1.37;1.37;;;3.00;99.90;;;;;;6287142;28;20483;-83
2022/04/07 07:04:01;;;;;;;1.80;1.70;;;3.00;99.90;;;;;;6287275;28;20297;-82
2022/04/07 07:07:10;;;;;;;1.43;1.43;;;3.00;99.90;;;;;;6286690;28;20443;-83
2022/04/07 07:10:20;;;;;;;1.97;1.90;;;3.10;99.90;;;;;;6279591;28;20287;-83
2022/04/07 07:13:25;;;;;;;1.50;1.50;;;3.10;99.90;;;;;;6262311;28;20301;-82
2022/04/07 07:16:31;;;;;;;1.43;1.43;;;3.00;99.90;;;;;;6261157;28;20299;-83
2022/04/07 07:19:38;;;;;;;1.70;1.70;;;3.10;99.90;;;;;;6244397;28;20301;-83
2022/04/07 07:22:45;;;;;;;1.60;1.60;;;3.10;99.90;;;;;;6261756;28;20298;-82
2022/04/07 07:25:51;;;;;;;1.50;1.43;;;3.20;99.90;;;;;;6262265;28;20478;-83
2022/04/07 07:28:56;;;;;;;1.70;1.70;;;3.20;99.90;;;;;;6260338;28;20300;-83
2022/04/07 07:32:02;;;;;;;1.70;1.70;;;3.20;99.90;;;;;;6261255;28;20282;-83
2022/04/07 07:35:10;;;;;;;1.57;1.57;;;3.20;99.90;;;;;;6262125;28;20303;-83
2022/04/07 07:38:16;;;;;;;1.50;1.43;;;3.20;99.90;;;;;;6261977;28;20300;-83
2022/04/07 07:41:22;;;;;;;1.40;1.40;;;3.30;99.90;;;;;;6261642;28;20458;-83
2022/04/07 07:44:27;;;;;;;1.60;1.60;;;3.30;99.90;;;;;;6261634;28;20299;-83
2022/04/07 07:47:34;;;;;;;1.37;1.37;;;3.30;99.90;;;;;;6261029;28;20302;-83
2022/04/07 07:50:42;;;;;;;1.63;1.50;;;3.30;99.90;;;;;;6260466;28;20276;-83
2022/04/07 07:53:55;;;;;;;1.20;1.20;;;3.30;99.90;;;;;;6259381;28;20298;-83
2022/04/07 07:57:00;;;;;;;1.30;1.30;;;3.30;99.90;;;;;;6259555;28;20297;-83
2022/04/07 08:00:09;;;;;;;1.30;1.23;;;3.40;99.90;;;;;;6259859;28;20451;-82
2022/04/07 08:03:19;;;;;;;1.60;1.57;;;3.40;99.90;;;;;;6260813;28;20298;-83
2022/04/07 08:06:24;;;;;;;1.30;1.30;;;3.50;99.90;;;;;;6261022;28;20274;-83
2022/04/07 08:09:32;;;;;;;1.50;1.40;;;3.50;99.90;;;;;;6262358;28;20479;-82
2022/04/07 08:12:38;;;;;;;1.07;1.07;;;3.50;99.90;;;;;;6285346;28;20302;-82
2022/04/07 08:15:43;;;;;;;1.57;1.50;;;3.40;99.90;;;;;;6286047;28;20298;-82
2022/04/07 08:18:49;;;;;;;1.40;1.40;;;3.30;99.90;;;;;;6284272;28;20306;-83
2022/04/07 08:21:54;;;;;;;1.60;1.50;;;3.20;99.90;;;;;;6283838;28;20278;-84
2022/04/07 08:25:02;;;;;;;1.53;1.43;;;3.30;99.90;;;;;;6285660;28;20462;-85
2022/04/07 08:28:07;;;;;;;1.50;1.40;;;3.30;99.90;;;;;;6283756;28;20302;-82
2022/04/07 08:31:13;;;;;;;1.30;1.30;;;3.40;99.90;;;;;;6285350;28;20293;-82
2022/04/07 08:34:19;;;;;;;1.23;1.23;;;3.50;99.90;;;;;;6285552;28;20299;-83
2022/04/07 08:37:24;;;;;;;1.37;1.30;;;3.40;99.90;;;;;;6284823;28;20300;-83
2022/04/07 08:40:32;;;;;;;1.23;1.23;;;3.50;99.90;;;;;;6286012;28;20278;-83
2022/04/07 08:43:39;;;;;;;1.40;1.40;;;3.50;99.90;;;;;;6285208;28;20311;-83
2022/04/07 08:46:53;;;;;;;1.30;1.30;;;3.60;99.90;;;;;;6284226;28;20275;-83
2022/04/07 08:50:00;;;;;;;1.50;1.40;;;3.70;99.90;;;;;;6284835;28;20272;-83
2022/04/07 08:53:06;;;;;;;1.30;1.30;;;3.60;99.90;;;;;;6284067;28;20295;-82
2022/04/07 08:56:15;;;;;;;1.33;1.30;;;3.60;99.90;;;;;;6284989;28;20302;-83
2022/04/07 08:59:20;;;;;;;1.20;1.20;;;3.70;99.90;;;;;;6285261;28;20301;-83
2022/04/07 09:02:26;;;;;;;1.07;1.07;;;3.70;99.90;;;;;;6284929;28;20287;-83
2022/04/07 09:05:31;;;;;;;1.90;1.20;;;3.80;99.90;;;;;;6269312;28;20278;-82
2022/04/07 09:08:38;;;;;;;1.10;1.10;;;3.80;99.90;;;;;;6289784;28;20605;-83
2022/04/07 09:11:46;;;;;;;1.40;1.40;;;3.90;99.90;;;;;;6270654;28;20272;-84
2022/04/07 09:14:56;;;;;;;1.40;1.40;;;3.80;99.90;;;;;;6263569;28;20616;-83
2022/04/07 09:18:04;;;;;;;1.50;1.50;;;4.10;99.90;;;;;;6264818;28;20300;-82
2022/04/07 09:21:23;;;;;;;1.60;1.60;;;4.30;99.90;;;;;;6265399;28;20274;-82
2022/04/07 09:24:28;;;;;;;1.23;1.13;;;4.20;99.90;;;;;;6264571;28;20302;-82
2022/04/07 09:27:35;;;;;;;1.20;1.20;;;4.40;99.90;;;;;;6263535;28;20298;-82
2022/04/07 09:30:43;;;;;;;1.37;1.37;;;4.40;99.90;;;;;;6265280;28;20275;-83
2022/04/07 09:33:54;;;;;;;1.20;1.20;;;4.40;99.90;;;;;;6264621;28;20299;-84
2022/04/07 09:37:06;;;;;;;1.20;1.20;;;4.30;99.90;;;;;;6264509;28;20291;-83
2022/04/07 09:40:16;;;;;;;1.07;1.07;;;4.20;99.90;;;;;;6265078;28;20275;-82
2022/04/07 09:43:23;;;;;;;1.40;1.40;;;4.30;99.90;;;;;;6262949;28;20296;-84
2022/04/07 09:46:34;;;;;;;1.20;1.20;;;4.20;99.90;;;;;;6263428;28;20285;-82
2022/04/07 09:49:39;;;;;;;1.20;1.20;;;4.40;99.90;;;;;;6264347;28;20296;-83
2022/04/07 09:52:56;;;;;;;2.17;1.60;;;4.40;99.90;;;;;;6263801;28;20295;-82
2022/04/07 09:56:01;;;;;;;1.80;1.80;;;4.40;99.90;;;;;;6264131;28;20298;-82
2022/04/07 09:59:09;;;;;;;4.10;1.57;;;4.50;99.90;;;;;;6262419;28;20299;-82
2022/04/07 10:02:17;;;;;;;1.13;1.13;;;4.40;99.90;;;;;;6263668;28;20300;-82
2022/04/07 10:05:24;;;;;;;1.33;1.23;;;4.40;99.90;;;;;;6262858;28;20277;-82
2022/04/07 10:08:33;;;;;;;1.60;1.50;;;4.30;99.90;;;;;;6263660;28;20314;-82
2022/04/07 10:11:38;;;;;;;1.33;1.27;;;4.30;99.90;;;;;;6283136;28;20265;-83
2022/04/07 10:14:46;;;;;;;1.40;1.40;;;4.30;99.90;;;;;;6286611;28;20384;-81
2022/04/07 10:17:51;;;;;;;1.53;1.43;;;4.20;99.90;;;;;;6286224;28;20301;-82
2022/04/07 10:21:03;;;;;;;1.30;1.30;;;4.10;99.90;;;;;;6288633;28;20552;-82
2022/04/07 10:24:28;;;;;;;1.73;1.40;;;4.20;99.90;;;;;;6286198;28;20307;-82
2022/04/07 10:27:57;;;;;;;1.53;1.43;;;4.10;99.90;;;;;;6287707;28;20312;-82
2022/04/07 10:31:14;;;;;;;1.77;1.40;;;4.20;99.90;;;;;;6286967;28;20308;-82
2022/04/07 10:34:32;;;;;;;1.47;1.40;;;4.20;99.90;;;;;;6287788;28;20455;-84
2022/04/07 10:37:46;;;;;;;1.70;1.30;;;4.20;99.90;;;;;;6287639;28;20313;-84
2022/04/07 10:40:51;;;;;;;1.87;1.80;;;4.20;99.90;;;;;;6288084;28;20275;-83
2022/04/07 10:44:08;;;;;;;1.40;1.40;;;4.30;99.90;;;;;;6287718;28;20472;-82
2022/04/07 10:47:28;;;;;;;1.23;1.23;;;4.40;99.90;;;;;;6287066;28;20406;-83
2022/04/07 10:50:34;;;;;;;1.40;1.40;;;4.60;99.90;;;;;;6288245;28;20455;-82
2022/04/07 10:53:41;;;;;;;1.87;1.70;;;4.40;99.90;;;;;;6287777;28;20297;-84
2022/04/07 10:56:48;;;;;;;2.40;1.40;;;4.40;99.90;;;;;;6287839;28;20301;-82
2022/04/07 10:59:54;;;;;;;1.60;1.50;;;4.30;99.90;;;;;;6286498;28;20277;-85
2022/04/07 11:03:15;;;;;;;1.60;1.60;;;4.30;99.90;;;;;;6287267;28;20292;-84
2022/04/07 11:06:24;;;;;;;1.77;1.70;;;4.30;99.90;;;;;;6287119;28;20273;-82
2022/04/07 11:09:45;;;;;;;1.60;1.60;;;4.30;99.90;;;;;;6286061;28;20483;-83
2022/04/07 11:13:03;;;;;;;1.73;1.63;;;4.10;99.90;;;;;;6262342;28;20411;-82
2022/04/07 11:16:22;;;;;;;1.97;1.70;;;4.10;99.90;;;;;;6262717;28;20304;-82
2022/04/07 11:19:45;;;;;;;3.07;1.80;;;4.30;99.90;;;;;;6262334;28;20300;-83
2022/04/07 11:22:54;;;;;;;2.37;1.90;;;4.20;99.90;;;;;;6262016;28;20302;-84
2022/04/07 11:26:11;;;;;;;2.90;1.90;;;4.20;99.90;;;;;;6262957;28;20289;-82
2022/04/07 11:29:32;;;;;;;1.93;1.90;;;4.30;99.90;;;;;;6261393;28;20301;-84
2022/04/07 11:32:41;;;;;;;1.87;1.87;;;4.30;99.90;;;;;;6261829;28;20450;-85
2022/04/07 11:36:27;;;;;;;1.90;1.90;;;4.10;99.90;;;;;;6261793;28;20278;-82
2022/04/07 11:39:33;;;;;;;2.27;2.17;;;4.00;99.90;;;;;;6261149;28;20304;-84
2022/04/07 11:42:40;;;;;;;2.40;1.97;;;4.10;99.90;;;;;;6260437;28;20292;-84
2022/04/07 11:45:46;;;;;;;2.20;2.10;;;4.10;99.90;;;;;;6260859;28;20273;-83
2022/04/07 11:48:52;;;;;;;2.30;2.10;;;4.10;99.90;;;;;;6261417;28;20299;-83
2022/04/07 11:51:59;;;;;;;2.33;2.23;;;4.20;99.90;;;;;;6244360;28;20277;-82
2022/04/07 11:55:06;;;;;;;1.87;1.77;;;4.10;99.90;;;;;;6260542;28;20280;-83
2022/04/07 11:58:17;;;;;;;2.07;1.97;;;4.10;99.90;;;;;;6261072;28;20334;-83
2022/04/07 12:01:23;;;;;;;3.67;2.30;;;4.00;99.90;;;;;;6260176;28;20276;-83
2022/04/07 12:04:32;;;;;;;1.90;1.90;;;4.10;99.90;;;;;;6261120;28;20292;-83
2022/04/07 12:07:40;;;;;;;2.07;1.93;;;4.00;99.90;;;;;;6261300;28;20296;-83
2022/04/07 12:10:46;;;;;;;2.00;1.90;;;4.00;99.90;;;;;;6255956;28;20268;-83
2022/04/07 12:13:53;;;;;;;2.23;2.13;;;4.00;99.90;;;;;;6285612;28;20296;-83
2022/04/07 12:16:59;;;;;;;1.83;1.80;;;4.10;99.90;;;;;;6285650;28;20278;-83
2022/04/07 12:20:07;;;;;;;1.87;1.87;;;4.00;99.90;;;;;;6285630;28;20294;-84
2022/04/07 12:23:15;;;;;;;2.00;2.00;;;4.10;99.90;;;;;;6283916;28;20299;-83
2022/04/07 12:26:21;;;;;;;1.77;1.77;;;4.20;99.90;;;;;;6284685;28;20273;-83
2022/04/07 12:29:30;;;;;;;1.70;1.70;;;4.20;99.90;;;;;;6284338;28;20308;-84
2022/04/07 12:32:43;;;;;;;1.93;1.93;;;4.20;99.90;;;;;;6285575;28;20292;-84
2022/04/07 12:35:49;;;;;;;1.77;1.77;;;4.00;99.90;;;;;;6284654;28;20282;-84
2022/04/07 12:39:03;;;;;;;2.00;2.00;;;4.00;99.90;;;;;;6285370;28;20302;-84
2022/04/07 12:42:09;;;;;;;2.10;2.00;;;3.90;99.90;;;;;;6289298;28;20278;-84
2022/04/07 12:45:14;;;;;;;1.77;1.77;;;3.90;99.90;;;;;;6289460;28;20558;-84
2022/04/07 12:48:22;;;;;;;2.00;1.90;;;3.90;99.90;;;;;;6290108;28;20292;-84
2022/04/07 12:51:34;;;;;;;1.93;1.90;;;3.90;99.90;;;;;;6289541;28;20274;-83
2022/04/07 12:54:56;;;;;;;1.93;1.87;;;4.00;99.90;;;;;;6288827;28;20295;-82
2022/04/07 12:58:01;;;;;;;1.97;1.90;;;3.90;99.90;;;;;;6289923;28;20295;-84
2022/04/07 13:01:10;;;;;;;2.67;1.77;;;3.90;99.90;;;;;;6290542;28;20271;-83
2022/04/07 13:04:17;;;;;;;1.90;1.80;;;4.00;99.90;;;;;;6288297;28;20291;-83
2022/04/07 13:07:23;;;;;;;2.40;2.20;;;4.10;99.90;;;;;;6289828;28;20575;-83
2022/04/07 13:10:31;;;;;;;2.60;1.80;;;4.10;99.90;;;;;;6280585;28;20459;-83
2022/04/07 13:13:37;;;;;;;1.70;1.60;;;4.00;99.90;;;;;;6280346;28;20303;-83
2022/04/07 13:16:44;;;;;;;1.70;1.70;;;3.80;99.90;;;;;;6265338;28;20279;-83
2022/04/07 13:19:50;;;;;;;2.00;2.00;;;3.70;99.90;;;;;;6264709;28;20300;-83
2022/04/07 13:22:56;;;;;;;1.90;1.90;;;3.70;99.90;;;;;;6264450;28;20306;-83
2022/04/07 13:26:03;;;;;;;2.93;1.70;;;3.70;99.90;;;;;;6265402;28;20280;-83
2022/04/07 13:29:08;;;;;;;1.60;1.60;;;3.70;99.90;;;;;;6264626;28;20300;-84
2022/04/07 13:32:13;;;;;;;1.73;1.67;;;3.70;99.90;;;;;;6264036;28;20272;-84
2022/04/07 13:35:19;;;;;;;1.70;1.70;;;3.70;99.90;;;;;;6265297;28;20275;-83
2022/04/07 13:38:24;;;;;;;1.50;1.50;;;3.80;99.90;;;;;;6264598;28;20295;-83
2022/04/07 13:41:32;;;;;;;1.53;1.53;;;3.80;99.90;;;;;;6264537;28;20298;-83
2022/04/07 13:44:38;;;;;;;1.60;1.60;;;3.80;99.90;;;;;;6279380;28;20484;-83
2022/04/07 13:47:43;;;;;;;1.20;1.20;;;3.70;99.90;;;;;;6279551;28;20303;-83
2022/04/07 13:50:49;;;;;;;1.20;1.20;;;3.70;99.90;;;;;;6279188;28;20283;-83
2022/04/07 13:53:55;;;;;;;1.77;1.67;;;3.80;99.90;;;;;;6263935;28;20296;-82
2022/04/07 13:57:02;;;;;;;1.30;1.30;;;3.70;99.90;;;;;;6262667;28;20279;-82
2022/04/07 14:00:09;;;;;;;1.40;1.30;;;3.70;99.90;;;;;;6264204;28;20295;-83
2022/04/07 14:03:18;;;;;;;1.40;1.30;;;3.60;99.90;;;;;;6278615;28;20296;-83
2022/04/07 14:06:23;;;;;;;1.30;1.30;;;3.70;99.90;;;;;;6264363;28;20307;-83
2022/04/07 14:09:29;;;;;;;1.40;1.27;;;3.70;99.90;;;;;;6263596;28;20299;-83
2022/04/07 14:12:35;;;;;;;1.27;1.27;;;3.60;99.90;;;;;;6263565;28;20436;-83
2022/04/07 14:15:43;;;;;;;1.40;1.40;;;3.70;99.90;;;;;;6262880;28;20429;-83
2022/04/07 14:18:48;;;;;;;1.50;1.20;;;3.60;99.90;;;;;;6263377;28;20299;-84
2022/04/07 14:21:54;;;;;;;1.10;1.10;;;3.60;99.90;;;;;;6263004;28;20474;-83
2022/04/07 14:24:59;;;;;;;1.07;1.07;;;3.60;99.90;;;;;;6261432;28;20279;-83
2022/04/07 14:28:08;;;;;;;1.10;1.10;;;3.50;99.90;;;;;;6263096;28;20295;-84
2022/04/07 14:31:14;;;;;;;1.00;1.00;;;3.60;99.90;;;;;;6263337;28;20278;-84
2022/04/07 14:34:20;;;;;;;1.20;1.20;;;3.40;99.90;;;;;;6261755;28;20296;-83
2022/04/07 14:37:25;;;;;;;2.57;1.00;;;3.50;99.90;;;;;;6263147;28;20294;-83
2022/04/07 14:40:31;;;;;;;1.10;1.10;;;3.40;99.90;;;;;;6263403;28;20306;-84
2022/04/07 14:43:38;;;;;;;1.10;1.10;;;3.30;99.90;;;;;;6263175;28;20307;-83
2022/04/07 14:46:43;;;;;;;0.97;0.97;;;3.40;99.90;;;;;;6261969;28;20275;-83
2022/04/07 14:49:49;;;;;;;1.00;1.00;;;3.40;99.90;;;;;;6262839;28;20304;-83
2022/04/07 14:52:54;;;;;;;1.20;1.20;;;3.30;99.90;;;;;;6262541;28;20291;-84
2022/04/07 14:56:00;;;;;;;0.83;0.83;;;3.30;99.90;;;;;;6262810;28;20281;-83
2022/04/07 14:59:07;;;;;;;0.90;0.90;;;3.20;99.90;;;;;;6262219;28;20292;-84
2022/04/07 15:02:13;;;;;;;0.90;0.90;;;3.20;99.90;;;;;;6261895;28;20298;-84
2022/04/07 15:05:18;;;;;;;1.07;1.07;;;3.20;99.90;;;;;;6262587;28;20271;-84
2022/04/07 15:08:23;;;;;;;0.90;0.90;;;3.20;99.90;;;;;;6261945;28;20299;-83
2022/04/07 15:11:29;;;;;;;1.80;1.10;;;3.20;99.90;;;;;;6280222;28;20270;-83
2022/04/07 15:14:39;;;;;;;1.27;1.20;;;3.10;99.90;;;;;;6285351;28;20390;-84
2022/04/07 15:17:46;;;;;;;1.13;1.07;;;3.10;99.90;;;;;;6286773;28;20296;-83
2022/04/07 15:20:51;;;;;;;1.03;1.03;;;3.10;99.90;;;;;;6287669;28;20291;-86
2022/04/07 15:23:57;;;;;;;0.90;0.90;;;2.90;99.90;;;;;;6286392;28;20301;-84
2022/04/07 15:27:03;;;;;;;0.90;0.90;;;2.90;99.90;;;;;;6287112;28;20274;-85
2022/04/07 15:30:15;;;;;;;2.87;1.10;;;2.90;99.90;;;;;;6287123;28;20274;-84
2022/04/07 15:33:22;;;;;;;0.80;0.80;;;3.00;99.90;;;;;;6286604;28;20298;-84
2022/04/07 15:36:28;;;;;;;1.40;0.90;;;3.00;99.90;;;;;;6286222;28;20273;-84
2022/04/07 15:39:33;;;;;;;0.90;0.90;;;2.90;99.90;;;;;;6284857;28;20302;-84
2022/04/07 15:42:39;;;;;;;1.10;1.10;;;2.90;99.90;;;;;;6286243;28;20297;-84
2022/04/07 15:45:46;;;;;;;1.10;1.10;;;3.00;99.90;;;;;;6286755;28;20553;-84
2022/04/07 15:48:51;;;;;;;2.00;1.10;;;2.90;99.90;;;;;;6268957;28;20298;-83
2022/04/07 15:51:57;;;;;;;1.00;1.00;;;2.90;99.90;;;;;;6286263;28;20276;-84
2022/04/07 15:55:02;;;;;;;1.10;1.10;;;2.80;99.90;;;;;;6286298;28;20382;-84
2022/04/07 15:58:10;;;;;;;1.30;1.30;;;2.80;99.90;;;;;;6286374;28;20295;-84
2022/04/07 16:01:16;;;;;;;1.20;1.20;;;2.80;99.90;;;;;;6286727;28;20299;-84
2022/04/07 16:04:22;;;;;;;2.63;1.30;;;2.70;99.90;;;;;;6284744;28;20293;-84
2022/04/07 16:07:28;;;;;;;1.13;1.13;;;2.60;99.90;;;;;;6284572;28;20302;-83
2022/04/07 16:10:34;;;;;;;1.00;1.00;;;2.60;99.90;;;;;;6276818;28;20267;-82
2022/04/07 16:13:40;;;;;;;1.10;1.10;;;2.60;99.90;;;;;;6260660;28;20302;-83
2022/04/07 16:17:07;;;;;;;1.00;1.00;;;2.60;99.90;;;;;;6261106;28;20275;-83
2022/04/07 16:20:14;;;;;;;1.10;1.10;;;2.60;99.90;;;;;;6276472;28;20275;-83
2022/04/07 16:23:21;;;;;;;1.00;1.00;;;2.50;99.90;;;;;;6258948;28;20461;-83
2022/04/07 16:26:28;;;;;;;1.20;1.10;;;2.50;99.90;;;;;;6244679;28;20195;-84
2022/04/07 16:29:33;;;;;;;1.57;1.00;;;2.40;99.90;;;;;;6259562;28;20304;-84